sensor_id;sensor_type;location;lat;lon;timestamp;P1;durP1;ratioP1;P2;durP2;ratioP2
15281;SDS011;7742;44.320;19.820;2023-05-20T01:15:23;72.33;;;66.37;;
15281;SDS011;7742;44.320;19.820;2023-05-20T01:18:00;79.50;;;72.50;;
15281;SDS011;7742;44.320;19.820;2023-05-20T01:20:30;78.07;;;71.37;;
15281;SDS011;7742;44.320;19.820;2023-05-20T01:22:59;84.73;;;77.83;;
15281;SDS011;7742;44.320;19.820;2023-05-20T01:25:27;81.10;;;74.50;;
15281;SDS011;7742;44.320;19.820;2023-05-20T01:27:54;80.87;;;74.27;;
15281;SDS011;7742;44.320;19.820;2023-05-20T01:30:23;94.10;;;84.43;;
15281;SDS011;7742;44.320;19.820;2023-05-20T01:32:53;92.43;;;81.47;;
15281;SDS011;7742;44.320;19.820;2023-05-20T01:35:21;1077.87;;;121.30;;
15281;SDS011;7742;44.320;19.820;2023-05-20T01:37:48;1156.50;;;131.73;;
15281;SDS011;7742;44.320;19.820;2023-05-20T01:40:17;833.93;;;116.40;;
15281;SDS011;7742;44.320;19.820;2023-05-20T01:42:44;1017.07;;;117.00;;
15281;SDS011;7742;44.320;19.820;2023-05-20T01:48:16;973.57;;;123.03;;
15281;SDS011;7742;44.320;19.820;2023-05-20T01:50:43;902.27;;;112.50;;
15281;SDS011;7742;44.320;19.820;2023-05-20T01:53:10;587.43;;;99.57;;
15281;SDS011;7742;44.320;19.820;2023-05-20T01:55:40;638.93;;;115.10;;
15281;SDS011;7742;44.320;19.820;2023-05-20T01:58:06;85.70;;;77.23;;
15281;SDS011;7742;44.320;19.820;2023-05-20T02:00:33;90.43;;;82.30;;
15281;SDS011;7742;44.320;19.820;2023-05-20T02:03:00;91.90;;;84.07;;
15281;SDS011;7742;44.320;19.820;2023-05-20T02:05:28;100.20;;;91.30;;
15281;SDS011;7742;44.320;19.820;2023-05-20T02:07:54;95.97;;;86.13;;
15281;SDS011;7742;44.320;19.820;2023-05-20T02:10:21;92.00;;;82.70;;
15281;SDS011;7742;44.320;19.820;2023-05-20T02:12:50;96.93;;;87.10;;
15281;SDS011;7742;44.320;19.820;2023-05-20T02:15:17;96.47;;;86.47;;
15281;SDS011;7742;44.320;19.820;2023-05-20T02:17:45;96.23;;;86.70;;
15281;SDS011;7742;44.320;19.820;2023-05-20T02:20:12;95.30;;;86.33;;
15281;SDS011;7742;44.320;19.820;2023-05-20T02:22:39;94.97;;;85.87;;
15281;SDS011;7742;44.320;19.820;2023-05-20T02:25:06;442.60;;;117.83;;
15281;SDS011;7742;44.320;19.820;2023-05-20T02:27:34;794.17;;;136.27;;
15281;SDS011;7742;44.320;19.820;2023-05-20T02:36:00;233.20;;;100.00;;
15281;SDS011;7742;44.320;19.820;2023-05-20T02:38:27;105.37;;;96.17;;
15281;SDS011;7742;44.320;19.820;2023-05-20T02:40:56;108.97;;;97.63;;
15281;SDS011;7742;44.320;19.820;2023-05-20T02:43:24;358.20;;;125.70;;
15281;SDS011;7742;44.320;19.820;2023-05-20T02:45:51;123.47;;;113.27;;
15281;SDS011;7742;44.320;19.820;2023-05-20T02:48:18;105.37;;;96.67;;
15281;SDS011;7742;44.320;19.820;2023-05-20T02:50:45;105.90;;;96.47;;
15281;SDS011;7742;44.320;19.820;2023-05-20T02:53:14;108.53;;;98.93;;
15281;SDS011;7742;44.320;19.820;2023-05-20T02:55:41;109.93;;;100.20;;
15281;SDS011;7742;44.320;19.820;2023-05-20T02:58:09;108.73;;;98.97;;
15281;SDS011;7742;44.320;19.820;2023-05-20T03:00:37;119.73;;;106.90;;
15281;SDS011;7742;44.320;19.820;2023-05-20T03:03:05;358.07;;;115.00;;
15281;SDS011;7742;44.320;19.820;2023-05-20T03:05:32;712.23;;;137.27;;
15281;SDS011;7742;44.320;19.820;2023-05-20T03:08:02;277.70;;;110.63;;
15281;SDS011;7742;44.320;19.820;2023-05-20T03:10:30;126.80;;;116.93;;
15281;SDS011;7742;44.320;19.820;2023-05-20T03:12:58;138.23;;;127.18;;
15281;SDS011;7742;44.320;19.820;2023-05-20T03:15:25;135.77;;;123.70;;
15281;SDS011;7742;44.320;19.820;2023-05-20T03:17:52;137.60;;;125.20;;
15281;SDS011;7742;44.320;19.820;2023-05-20T03:20:20;135.33;;;123.27;;
15281;SDS011;7742;44.320;19.820;2023-05-20T03:22:47;135.37;;;122.40;;
15281;SDS011;7742;44.320;19.820;2023-05-20T03:25:14;143.57;;;130.37;;
15281;SDS011;7742;44.320;19.820;2023-05-20T03:27:43;132.87;;;119.90;;
15281;SDS011;7742;44.320;19.820;2023-05-20T03:30:11;157.47;;;119.43;;
15281;SDS011;7742;44.320;19.820;2023-05-20T03:32:38;122.03;;;112.83;;
15281;SDS011;7742;44.320;19.820;2023-05-20T03:35:06;126.50;;;116.73;;
15281;SDS011;7742;44.320;19.820;2023-05-20T03:37:33;132.73;;;123.60;;
15281;SDS011;7742;44.320;19.820;2023-05-20T03:40:01;207.20;;;131.60;;
15281;SDS011;7742;44.320;19.820;2023-05-20T03:42:30;285.00;;;144.67;;
15281;SDS011;7742;44.320;19.820;2023-05-20T03:44:59;397.37;;;158.80;;
15281;SDS011;7742;44.320;19.820;2023-05-20T03:47:26;409.33;;;145.00;;
15281;SDS011;7742;44.320;19.820;2023-05-20T03:49:53;296.93;;;147.80;;
15281;SDS011;7742;44.320;19.820;2023-05-20T03:52:20;305.03;;;137.03;;
15281;SDS011;7742;44.320;19.820;2023-05-20T03:54:47;363.63;;;134.37;;
15281;SDS011;7742;44.320;19.820;2023-05-20T03:57:14;144.13;;;108.10;;
15281;SDS011;7742;44.320;19.820;2023-05-20T03:59:41;186.67;;;112.53;;
15281;SDS011;7742;44.320;19.820;2023-05-20T04:02:09;121.97;;;107.93;;
15281;SDS011;7742;44.320;19.820;2023-05-20T04:04:36;133.50;;;103.93;;
15281;SDS011;7742;44.320;19.820;2023-05-20T04:07:03;91.43;;;84.07;;
15281;SDS011;7742;44.320;19.820;2023-05-20T04:09:31;67.93;;;57.53;;
15281;SDS011;7742;44.320;19.820;2023-05-20T04:11:58;52.27;;;47.17;;
15281;SDS011;7742;44.320;19.820;2023-05-20T04:14:26;55.90;;;51.10;;
15281;SDS011;7742;44.320;19.820;2023-05-20T04:16:53;52.20;;;47.50;;
15281;SDS011;7742;44.320;19.820;2023-05-20T04:19:22;304.93;;;67.33;;
15281;SDS011;7742;44.320;19.820;2023-05-20T04:21:52;1099.13;;;125.50;;
15281;SDS011;7742;44.320;19.820;2023-05-20T04:24:19;1315.47;;;132.20;;
15281;SDS011;7742;44.320;19.820;2023-05-20T04:26:49;296.10;;;52.90;;
15281;SDS011;7742;44.320;19.820;2023-05-20T04:29:16;142.87;;;44.47;;
15281;SDS011;7742;44.320;19.820;2023-05-20T04:31:43;90.97;;;37.37;;
15281;SDS011;7742;44.320;19.820;2023-05-20T04:34:10;244.63;;;49.17;;
15281;SDS011;7742;44.320;19.820;2023-05-20T04:36:39;160.13;;;40.70;;
15281;SDS011;7742;44.320;19.820;2023-05-20T04:39:06;88.17;;;34.73;;
15281;SDS011;7742;44.320;19.820;2023-05-20T04:41:33;151.33;;;39.60;;
15281;SDS011;7742;44.320;19.820;2023-05-20T04:44:00;464.73;;;59.60;;
15281;SDS011;7742;44.320;19.820;2023-05-20T04:46:28;766.33;;;78.87;;
15281;SDS011;7742;44.320;19.820;2023-05-20T04:48:55;341.80;;;50.13;;
15281;SDS011;7742;44.320;19.820;2023-05-20T04:51:22;171.60;;;42.57;;
15281;SDS011;7742;44.320;19.820;2023-05-20T04:53:51;392.33;;;55.83;;
15281;SDS011;7742;44.320;19.820;2023-05-20T04:56:18;627.67;;;71.67;;
15281;SDS011;7742;44.320;19.820;2023-05-20T04:58:45;1132.03;;;99.87;;
15281;SDS011;7742;44.320;19.820;2023-05-20T05:01:11;537.27;;;67.33;;
15281;SDS011;7742;44.320;19.820;2023-05-20T05:03:38;47.90;;;36.67;;
15281;SDS011;7742;44.320;19.820;2023-05-20T05:06:05;381.43;;;56.27;;
15281;SDS011;7742;44.320;19.820;2023-05-20T05:08:32;39.70;;;35.90;;
15281;SDS011;7742;44.320;19.820;2023-05-20T05:11:13;48.37;;;39.00;;
15281;SDS011;7742;44.320;19.820;2023-05-20T05:13:41;103.40;;;42.13;;
15281;SDS011;7742;44.320;19.820;2023-05-20T05:16:08;41.33;;;37.57;;
15281;SDS011;7742;44.320;19.820;2023-05-20T05:18:35;36.73;;;34.20;;
15281;SDS011;7742;44.320;19.820;2023-05-20T05:21:02;36.45;;;34.15;;
15281;SDS011;7742;44.320;19.820;2023-05-20T05:23:29;34.83;;;32.38;;
15281;SDS011;7742;44.320;19.820;2023-05-20T05:25:56;34.55;;;32.25;;
15281;SDS011;7742;44.320;19.820;2023-05-20T05:28:25;37.00;;;34.40;;
15281;SDS011;7742;44.320;19.820;2023-05-20T05:30:52;35.25;;;32.83;;
15281;SDS011;7742;44.320;19.820;2023-05-20T05:33:19;37.47;;;34.80;;
15281;SDS011;7742;44.320;19.820;2023-05-20T05:35:46;40.50;;;37.70;;
15281;SDS011;7742;44.320;19.820;2023-05-20T05:38:13;38.70;;;35.97;;
15281;SDS011;7742;44.320;19.820;2023-05-20T05:40:40;36.63;;;34.22;;
15281;SDS011;7742;44.320;19.820;2023-05-20T05:43:07;35.58;;;33.10;;
15281;SDS011;7742;44.320;19.820;2023-05-20T05:45:35;36.20;;;33.70;;
15281;SDS011;7742;44.320;19.820;2023-05-20T05:48:02;35.40;;;33.00;;
15281;SDS011;7742;44.320;19.820;2023-05-20T05:50:29;42.25;;;39.75;;
15281;SDS011;7742;44.320;19.820;2023-05-20T05:52:56;38.20;;;35.90;;
15281;SDS011;7742;44.320;19.820;2023-05-20T05:55:23;35.17;;;32.88;;
15281;SDS011;7742;44.320;19.820;2023-05-20T05:57:50;34.33;;;32.20;;
15281;SDS011;7742;44.320;19.820;2023-05-20T06:00:17;32.40;;;30.17;;
15281;SDS011;7742;44.320;19.820;2023-05-20T06:02:45;32.13;;;30.15;;
15281;SDS011;7742;44.320;19.820;2023-05-20T06:05:12;31.83;;;29.88;;
15281;SDS011;7742;44.320;19.820;2023-05-20T06:07:39;31.08;;;28.85;;
15281;SDS011;7742;44.320;19.820;2023-05-20T06:10:06;31.10;;;29.30;;
15281;SDS011;7742;44.320;19.820;2023-05-20T06:12:35;31.30;;;29.55;;
15281;SDS011;7742;44.320;19.820;2023-05-20T06:15:02;31.95;;;30.05;;
15281;SDS011;7742;44.320;19.820;2023-05-20T06:17:29;32.42;;;30.38;;
15281;SDS011;7742;44.320;19.820;2023-05-20T06:19:57;29.40;;;27.50;;
15281;SDS011;7742;44.320;19.820;2023-05-20T06:22:24;28.88;;;27.00;;
15281;SDS011;7742;44.320;19.820;2023-05-20T06:24:52;29.27;;;27.35;;
15281;SDS011;7742;44.320;19.820;2023-05-20T06:27:19;29.98;;;28.00;;
15281;SDS011;7742;44.320;19.820;2023-05-20T06:29:46;33.67;;;31.45;;
15281;SDS011;7742;44.320;19.820;2023-05-20T06:32:13;31.00;;;28.83;;
15281;SDS011;7742;44.320;19.820;2023-05-20T06:34:40;33.63;;;31.60;;
15281;SDS011;7742;44.320;19.820;2023-05-20T06:37:08;36.95;;;34.78;;
15281;SDS011;7742;44.320;19.820;2023-05-20T06:39:35;31.27;;;29.20;;
15281;SDS011;7742;44.320;19.820;2023-05-20T06:42:02;33.85;;;31.75;;
15281;SDS011;7742;44.320;19.820;2023-05-20T06:44:29;30.10;;;28.20;;
15281;SDS011;7742;44.320;19.820;2023-05-20T06:46:56;31.58;;;29.77;;
15281;SDS011;7742;44.320;19.820;2023-05-20T06:49:23;29.95;;;28.05;;
15281;SDS011;7742;44.320;19.820;2023-05-20T06:51:50;36.17;;;33.92;;
15281;SDS011;7742;44.320;19.820;2023-05-20T06:54:18;31.02;;;29.13;;
15281;SDS011;7742;44.320;19.820;2023-05-20T06:56:46;30.13;;;28.33;;
15281;SDS011;7742;44.320;19.820;2023-05-20T06:59:13;30.80;;;29.00;;
15281;SDS011;7742;44.320;19.820;2023-05-20T07:01:39;32.83;;;30.75;;
15281;SDS011;7742;44.320;19.820;2023-05-20T07:04:06;30.92;;;28.92;;
15281;SDS011;7742;44.320;19.820;2023-05-20T07:06:33;30.53;;;28.53;;
15281;SDS011;7742;44.320;19.820;2023-05-20T07:09:04;32.60;;;30.60;;
15281;SDS011;7742;44.320;19.820;2023-05-20T07:11:34;32.77;;;30.57;;
15281;SDS011;7742;44.320;19.820;2023-05-20T07:14:01;35.30;;;32.90;;
15281;SDS011;7742;44.320;19.820;2023-05-20T07:16:28;34.50;;;32.10;;
15281;SDS011;7742;44.320;19.820;2023-05-20T07:18:56;35.27;;;32.83;;
15281;SDS011;7742;44.320;19.820;2023-05-20T07:21:23;33.97;;;31.67;;
15281;SDS011;7742;44.320;19.820;2023-05-20T07:23:50;30.33;;;28.23;;
15281;SDS011;7742;44.320;19.820;2023-05-20T07:26:17;32.00;;;29.80;;
15281;SDS011;7742;44.320;19.820;2023-05-20T07:28:45;31.77;;;29.37;;
15281;SDS011;7742;44.320;19.820;2023-05-20T07:31:12;30.57;;;28.47;;
15281;SDS011;7742;44.320;19.820;2023-05-20T07:33:39;29.47;;;27.57;;
15281;SDS011;7742;44.320;19.820;2023-05-20T07:36:06;30.10;;;28.10;;
15281;SDS011;7742;44.320;19.820;2023-05-20T07:38:33;30.37;;;28.53;;
15281;SDS011;7742;44.320;19.820;2023-05-20T07:41:00;32.27;;;30.07;;
15281;SDS011;7742;44.320;19.820;2023-05-20T07:43:27;30.13;;;28.33;;
15281;SDS011;7742;44.320;19.820;2023-05-20T07:45:55;30.50;;;28.50;;
15281;SDS011;7742;44.320;19.820;2023-05-20T07:48:22;28.07;;;26.37;;
15281;SDS011;7742;44.320;19.820;2023-05-20T07:50:49;28.77;;;26.77;;
15281;SDS011;7742;44.320;19.820;2023-05-20T07:53:16;30.63;;;28.63;;
15281;SDS011;7742;44.320;19.820;2023-05-20T07:55:44;30.73;;;28.70;;
15281;SDS011;7742;44.320;19.820;2023-05-20T07:58:11;29.50;;;27.60;;
15281;SDS011;7742;44.320;19.820;2023-05-20T08:00:37;29.33;;;27.43;;
15281;SDS011;7742;44.320;19.820;2023-05-20T08:03:06;28.60;;;26.70;;
15281;SDS011;7742;44.320;19.820;2023-05-20T08:05:35;29.43;;;27.63;;
15281;SDS011;7742;44.320;19.820;2023-05-20T08:08:02;28.90;;;26.90;;
15281;SDS011;7742;44.320;19.820;2023-05-20T08:10:29;27.47;;;25.67;;
15281;SDS011;7742;44.320;19.820;2023-05-20T08:12:56;27.77;;;25.97;;
15281;SDS011;7742;44.320;19.820;2023-05-20T08:15:23;29.47;;;27.67;;
15281;SDS011;7742;44.320;19.820;2023-05-20T08:17:50;30.80;;;28.90;;
15281;SDS011;7742;44.320;19.820;2023-05-20T08:20:18;34.83;;;32.93;;
15281;SDS011;7742;44.320;19.820;2023-05-20T08:22:45;31.07;;;29.27;;
15281;SDS011;7742;44.320;19.820;2023-05-20T08:25:12;30.63;;;28.83;;
15281;SDS011;7742;44.320;19.820;2023-05-20T08:27:40;32.93;;;30.93;;
15281;SDS011;7742;44.320;19.820;2023-05-20T08:30:07;28.47;;;26.77;;
15281;SDS011;7742;44.320;19.820;2023-05-20T08:32:34;28.57;;;26.60;;
15281;SDS011;7742;44.320;19.820;2023-05-20T08:35:01;27.03;;;25.43;;
15281;SDS011;7742;44.320;19.820;2023-05-20T08:37:30;28.03;;;26.13;;
15281;SDS011;7742;44.320;19.820;2023-05-20T08:39:57;30.97;;;28.73;;
15281;SDS011;7742;44.320;19.820;2023-05-20T08:42:23;29.07;;;27.23;;
15281;SDS011;7742;44.320;19.820;2023-05-20T08:44:51;29.77;;;27.87;;
15281;SDS011;7742;44.320;19.820;2023-05-20T08:47:18;26.83;;;25.03;;
15281;SDS011;7742;44.320;19.820;2023-05-20T08:49:46;25.87;;;24.27;;
15281;SDS011;7742;44.320;19.820;2023-05-20T08:52:13;25.63;;;23.93;;
15281;SDS011;7742;44.320;19.820;2023-05-20T08:54:44;25.27;;;23.67;;
15281;SDS011;7742;44.320;19.820;2023-05-20T08:57:11;24.50;;;23.00;;
15281;SDS011;7742;44.320;19.820;2023-05-20T08:59:39;23.57;;;22.17;;
15281;SDS011;7742;44.320;19.820;2023-05-20T09:02:06;22.60;;;21.20;;
15281;SDS011;7742;44.320;19.820;2023-05-20T09:04:34;23.63;;;22.23;;
15281;SDS011;7742;44.320;19.820;2023-05-20T09:07:01;24.03;;;22.60;;
15281;SDS011;7742;44.320;19.820;2023-05-20T09:09:28;25.50;;;24.00;;
15281;SDS011;7742;44.320;19.820;2023-05-20T09:11:56;27.10;;;25.70;;
15281;SDS011;7742;44.320;19.820;2023-05-20T09:14:23;28.87;;;27.27;;
15281;SDS011;7742;44.320;19.820;2023-05-20T09:16:51;25.73;;;24.43;;
15281;SDS011;7742;44.320;19.820;2023-05-20T09:19:19;28.80;;;27.17;;
15281;SDS011;7742;44.320;19.820;2023-05-20T09:21:46;27.07;;;25.67;;
15281;SDS011;7742;44.320;19.820;2023-05-20T09:24:12;26.57;;;25.13;;
15281;SDS011;7742;44.320;19.820;2023-05-20T09:26:39;25.23;;;23.73;;
15281;SDS011;7742;44.320;19.820;2023-05-20T09:29:08;24.83;;;23.20;;
15281;SDS011;7742;44.320;19.820;2023-05-20T09:31:35;22.40;;;20.97;;
15281;SDS011;7742;44.320;19.820;2023-05-20T09:34:03;24.37;;;22.87;;
15281;SDS011;7742;44.320;19.820;2023-05-20T09:36:29;24.37;;;22.67;;
15281;SDS011;7742;44.320;19.820;2023-05-20T09:38:59;25.30;;;23.73;;
15281;SDS011;7742;44.320;19.820;2023-05-20T09:41:30;30.03;;;28.03;;
15281;SDS011;7742;44.320;19.820;2023-05-20T09:43:59;30.07;;;28.27;;
15281;SDS011;7742;44.320;19.820;2023-05-20T09:46:28;33.07;;;31.07;;
15281;SDS011;7742;44.320;19.820;2023-05-20T09:48:55;31.13;;;29.10;;
15281;SDS011;7742;44.320;19.820;2023-05-20T09:51:23;30.77;;;28.97;;
15281;SDS011;7742;44.320;19.820;2023-05-20T09:53:52;31.60;;;29.70;;
15281;SDS011;7742;44.320;19.820;2023-05-20T09:56:19;30.90;;;28.90;;
15281;SDS011;7742;44.320;19.820;2023-05-20T09:58:47;28.70;;;26.77;;
15281;SDS011;7742;44.320;19.820;2023-05-20T10:01:15;28.23;;;26.27;;
15281;SDS011;7742;44.320;19.820;2023-05-20T10:03:43;27.63;;;25.83;;
15281;SDS011;7742;44.320;19.820;2023-05-20T10:06:17;28.87;;;27.07;;
15281;SDS011;7742;44.320;19.820;2023-05-20T10:08:57;28.73;;;26.87;;
15281;SDS011;7742;44.320;19.820;2023-05-20T10:11:37;28.57;;;26.63;;
15281;SDS011;7742;44.320;19.820;2023-05-20T10:14:12;27.47;;;25.77;;
15281;SDS011;7742;44.320;19.820;2023-05-20T10:16:45;26.40;;;24.90;;
15281;SDS011;7742;44.320;19.820;2023-05-20T10:19:18;27.37;;;25.57;;
15281;SDS011;7742;44.320;19.820;2023-05-20T10:21:55;21.23;;;19.73;;
15281;SDS011;7742;44.320;19.820;2023-05-20T10:24:28;21.57;;;20.07;;
15281;SDS011;7742;44.320;19.820;2023-05-20T10:26:56;22.20;;;20.67;;
15281;SDS011;7742;44.320;19.820;2023-05-20T10:29:23;21.60;;;20.30;;
15281;SDS011;7742;44.320;19.820;2023-05-20T10:31:51;21.03;;;19.60;;
15281;SDS011;7742;44.320;19.820;2023-05-20T10:34:20;22.77;;;21.27;;
15281;SDS011;7742;44.320;19.820;2023-05-20T10:36:56;20.57;;;19.27;;
15281;SDS011;7742;44.320;19.820;2023-05-20T10:39:24;19.67;;;18.43;;
15281;SDS011;7742;44.320;19.820;2023-05-20T10:44:54;23.60;;;22.10;;
15281;SDS011;7742;44.320;19.820;2023-05-20T10:47:21;23.77;;;22.10;;
15281;SDS011;7742;44.320;19.820;2023-05-20T10:49:50;23.10;;;21.57;;
15281;SDS011;7742;44.320;19.820;2023-05-20T10:58:20;22.53;;;20.83;;
15281;SDS011;7742;44.320;19.820;2023-05-20T11:00:52;20.10;;;18.73;;
15281;SDS011;7742;44.320;19.820;2023-05-20T11:03:33;20.83;;;19.33;;
15281;SDS011;7742;44.320;19.820;2023-05-20T11:06:02;20.20;;;18.90;;
15281;SDS011;7742;44.320;19.820;2023-05-20T11:08:36;21.43;;;20.17;;
15281;SDS011;7742;44.320;19.820;2023-05-20T11:11:02;20.17;;;18.77;;
15281;SDS011;7742;44.320;19.820;2023-05-20T11:13:30;21.67;;;20.37;;
15281;SDS011;7742;44.320;19.820;2023-05-20T11:16:10;22.73;;;21.43;;
15281;SDS011;7742;44.320;19.820;2023-05-20T11:18:37;20.33;;;19.20;;
15281;SDS011;7742;44.320;19.820;2023-05-20T11:21:05;20.47;;;19.13;;
15281;SDS011;7742;44.320;19.820;2023-05-20T11:23:32;19.13;;;17.93;;
15281;SDS011;7742;44.320;19.820;2023-05-20T11:25:59;20.03;;;18.83;;
15281;SDS011;7742;44.320;19.820;2023-05-20T11:28:28;17.43;;;16.43;;
15281;SDS011;7742;44.320;19.820;2023-05-20T11:30:58;22.67;;;20.83;;
15281;SDS011;7742;44.320;19.820;2023-05-20T11:33:25;29.67;;;27.87;;
15281;SDS011;7742;44.320;19.820;2023-05-20T11:35:52;24.33;;;22.93;;
15281;SDS011;7742;44.320;19.820;2023-05-20T11:38:21;19.23;;;18.03;;
15281;SDS011;7742;44.320;19.820;2023-05-20T11:40:50;25.67;;;22.17;;
15281;SDS011;7742;44.320;19.820;2023-05-20T11:43:17;24.73;;;22.20;;
15281;SDS011;7742;44.320;19.820;2023-05-20T11:45:44;22.80;;;20.40;;
15281;SDS011;7742;44.320;19.820;2023-05-20T11:48:12;24.77;;;22.73;;
15281;SDS011;7742;44.320;19.820;2023-05-20T11:50:40;21.50;;;20.00;;
15281;SDS011;7742;44.320;19.820;2023-05-20T11:53:07;21.57;;;20.27;;
15281;SDS011;7742;44.320;19.820;2023-05-20T11:55:43;23.57;;;21.87;;
15281;SDS011;7742;44.320;19.820;2023-05-20T11:58:10;22.23;;;20.83;;
15281;SDS011;7742;44.320;19.820;2023-05-20T12:00:37;22.77;;;21.33;;
15281;SDS011;7742;44.320;19.820;2023-05-20T12:06:10;26.27;;;24.77;;
15281;SDS011;7742;44.320;19.820;2023-05-20T12:08:37;26.60;;;24.80;;
15281;SDS011;7742;44.320;19.820;2023-05-20T12:11:16;22.87;;;21.40;;
15281;SDS011;7742;44.320;19.820;2023-05-20T12:13:43;24.10;;;22.50;;
15281;SDS011;7742;44.320;19.820;2023-05-20T12:16:10;25.13;;;23.73;;
15281;SDS011;7742;44.320;19.820;2023-05-20T12:18:37;23.47;;;21.77;;
15281;SDS011;7742;44.320;19.820;2023-05-20T12:21:03;21.40;;;20.10;;
15281;SDS011;7742;44.320;19.820;2023-05-20T12:23:30;21.37;;;20.00;;
15281;SDS011;7742;44.320;19.820;2023-05-20T12:25:58;22.60;;;21.10;;
15281;SDS011;7742;44.320;19.820;2023-05-20T12:28:26;21.80;;;20.50;;
15281;SDS011;7742;44.320;19.820;2023-05-20T12:30:53;20.80;;;19.43;;
15281;SDS011;7742;44.320;19.820;2023-05-20T12:33:20;21.90;;;20.60;;
15281;SDS011;7742;44.320;19.820;2023-05-20T12:35:47;21.40;;;20.10;;
15281;SDS011;7742;44.320;19.820;2023-05-20T12:38:14;21.60;;;20.00;;
15281;SDS011;7742;44.320;19.820;2023-05-20T12:40:41;23.37;;;21.70;;
15281;SDS011;7742;44.320;19.820;2023-05-20T12:43:08;20.67;;;19.40;;
15281;SDS011;7742;44.320;19.820;2023-05-20T12:45:36;19.20;;;18.00;;
15281;SDS011;7742;44.320;19.820;2023-05-20T12:48:03;21.27;;;19.97;;
15281;SDS011;7742;44.320;19.820;2023-05-20T12:50:31;23.00;;;21.50;;
15281;SDS011;7742;44.320;19.820;2023-05-20T12:52:58;19.90;;;18.60;;
15281;SDS011;7742;44.320;19.820;2023-05-20T12:55:25;22.57;;;21.07;;
15281;SDS011;7742;44.320;19.820;2023-05-20T12:57:53;21.07;;;19.57;;
15281;SDS011;7742;44.320;19.820;2023-05-20T13:00:19;20.07;;;18.77;;
15281;SDS011;7742;44.320;19.820;2023-05-20T13:02:48;21.17;;;19.97;;
15281;SDS011;7742;44.320;19.820;2023-05-20T13:05:15;20.40;;;19.27;;
15281;SDS011;7742;44.320;19.820;2023-05-20T13:07:41;20.97;;;19.27;;
15281;SDS011;7742;44.320;19.820;2023-05-20T13:10:09;21.13;;;19.63;;
15281;SDS011;7742;44.320;19.820;2023-05-20T13:12:36;20.00;;;18.80;;
15281;SDS011;7742;44.320;19.820;2023-05-20T13:15:03;21.80;;;20.40;;
15281;SDS011;7742;44.320;19.820;2023-05-20T13:17:30;25.67;;;24.07;;
15281;SDS011;7742;44.320;19.820;2023-05-20T13:19:58;22.73;;;21.37;;
15281;SDS011;7742;44.320;19.820;2023-05-20T13:22:25;22.53;;;21.07;;
15281;SDS011;7742;44.320;19.820;2023-05-20T13:24:52;21.90;;;20.53;;
15281;SDS011;7742;44.320;19.820;2023-05-20T13:27:19;21.10;;;19.80;;
15281;SDS011;7742;44.320;19.820;2023-05-20T13:29:46;21.40;;;20.00;;
15281;SDS011;7742;44.320;19.820;2023-05-20T13:32:13;21.67;;;20.27;;
15281;SDS011;7742;44.320;19.820;2023-05-20T13:34:40;20.33;;;18.93;;
15281;SDS011;7742;44.320;19.820;2023-05-20T13:37:08;18.50;;;17.20;;
15281;SDS011;7742;44.320;19.820;2023-05-20T13:39:35;19.27;;;18.03;;
15281;SDS011;7742;44.320;19.820;2023-05-20T13:42:02;21.27;;;19.90;;
15281;SDS011;7742;44.320;19.820;2023-05-20T13:44:29;19.90;;;18.60;;
15281;SDS011;7742;44.320;19.820;2023-05-20T13:46:56;19.97;;;18.77;;
15281;SDS011;7742;44.320;19.820;2023-05-20T13:49:23;21.70;;;19.97;;
15281;SDS011;7742;44.320;19.820;2023-05-20T13:51:50;19.17;;;17.87;;
15281;SDS011;7742;44.320;19.820;2023-05-20T13:54:19;19.50;;;18.10;;
15281;SDS011;7742;44.320;19.820;2023-05-20T13:56:46;18.60;;;17.40;;
15281;SDS011;7742;44.320;19.820;2023-05-20T13:59:13;20.87;;;19.50;;
15281;SDS011;7742;44.320;19.820;2023-05-20T14:01:40;23.57;;;22.07;;
15281;SDS011;7742;44.320;19.820;2023-05-20T14:04:09;22.20;;;20.70;;
15281;SDS011;7742;44.320;19.820;2023-05-20T14:06:36;23.20;;;21.70;;
15281;SDS011;7742;44.320;19.820;2023-05-20T14:09:04;20.20;;;19.00;;
15281;SDS011;7742;44.320;19.820;2023-05-20T14:11:33;21.07;;;19.87;;
15281;SDS011;7742;44.320;19.820;2023-05-20T14:14:00;20.87;;;19.67;;
15281;SDS011;7742;44.320;19.820;2023-05-20T14:16:27;22.40;;;21.10;;
15281;SDS011;7742;44.320;19.820;2023-05-20T14:18:54;23.87;;;22.27;;
15281;SDS011;7742;44.320;19.820;2023-05-20T14:21:21;25.73;;;24.07;;
15281;SDS011;7742;44.320;19.820;2023-05-20T14:23:48;22.27;;;20.97;;
15281;SDS011;7742;44.320;19.820;2023-05-20T14:26:15;22.60;;;21.03;;
15281;SDS011;7742;44.320;19.820;2023-05-20T14:28:44;25.53;;;24.03;;
15281;SDS011;7742;44.320;19.820;2023-05-20T14:31:11;24.03;;;22.70;;
15281;SDS011;7742;44.320;19.820;2023-05-20T14:33:38;21.13;;;19.70;;
15281;SDS011;7742;44.320;19.820;2023-05-20T14:36:05;22.70;;;21.20;;
15281;SDS011;7742;44.320;19.820;2023-05-20T14:38:31;22.37;;;21.07;;
15281;SDS011;7742;44.320;19.820;2023-05-20T14:40:58;22.43;;;20.83;;
15281;SDS011;7742;44.320;19.820;2023-05-20T14:43:25;22.67;;;21.17;;
15281;SDS011;7742;44.320;19.820;2023-05-20T14:45:53;21.87;;;20.23;;
15281;SDS011;7742;44.320;19.820;2023-05-20T14:48:20;20.90;;;19.57;;
15281;SDS011;7742;44.320;19.820;2023-05-20T14:50:47;20.77;;;19.40;;
15281;SDS011;7742;44.320;19.820;2023-05-20T14:53:14;21.37;;;19.97;;
15281;SDS011;7742;44.320;19.820;2023-05-20T14:55:41;22.50;;;21.00;;
15281;SDS011;7742;44.320;19.820;2023-05-20T14:58:08;22.93;;;21.30;;
15281;SDS011;7742;44.320;19.820;2023-05-20T15:00:35;23.90;;;21.97;;
15281;SDS011;7742;44.320;19.820;2023-05-20T15:03:04;23.13;;;21.40;;
15281;SDS011;7742;44.320;19.820;2023-05-20T15:05:30;23.67;;;22.30;;
15281;SDS011;7742;44.320;19.820;2023-05-20T15:07:57;23.73;;;22.23;;
15281;SDS011;7742;44.320;19.820;2023-05-20T15:10:24;24.37;;;22.70;;
15281;SDS011;7742;44.320;19.820;2023-05-20T15:12:51;23.20;;;21.70;;
15281;SDS011;7742;44.320;19.820;2023-05-20T15:15:19;22.73;;;21.27;;
15281;SDS011;7742;44.320;19.820;2023-05-20T15:17:46;24.87;;;23.30;;
15281;SDS011;7742;44.320;19.820;2023-05-20T15:20:14;24.67;;;22.90;;
15281;SDS011;7742;44.320;19.820;2023-05-20T15:22:41;24.93;;;23.13;;
15281;SDS011;7742;44.320;19.820;2023-05-20T15:25:10;28.63;;;26.87;;
15281;SDS011;7742;44.320;19.820;2023-05-20T15:27:37;27.73;;;26.07;;
15281;SDS011;7742;44.320;19.820;2023-05-20T15:30:04;26.20;;;24.47;;
15281;SDS011;7742;44.320;19.820;2023-05-20T15:32:31;25.60;;;23.90;;
15281;SDS011;7742;44.320;19.820;2023-05-20T15:34:58;27.67;;;25.87;;
15281;SDS011;7742;44.320;19.820;2023-05-20T15:37:26;26.43;;;24.70;;
15281;SDS011;7742;44.320;19.820;2023-05-20T15:39:53;27.33;;;25.73;;
15281;SDS011;7742;44.320;19.820;2023-05-20T15:42:20;29.67;;;28.07;;
15281;SDS011;7742;44.320;19.820;2023-05-20T15:44:47;28.87;;;27.07;;
15281;SDS011;7742;44.320;19.820;2023-05-20T15:47:14;22.80;;;21.37;;
15281;SDS011;7742;44.320;19.820;2023-05-20T15:49:41;24.10;;;22.40;;
15281;SDS011;7742;44.320;19.820;2023-05-20T15:52:07;26.43;;;24.93;;
15281;SDS011;7742;44.320;19.820;2023-05-20T15:54:36;24.13;;;22.63;;
15281;SDS011;7742;44.320;19.820;2023-05-20T15:57:03;25.20;;;23.40;;